sensor_id;sensor_type;location;lat;lon;timestamp;temperature;humidity
54202;DHT22;40108;53.152;5.844;2023-02-07T00:00:16;1.00;93.30
54202;DHT22;40108;53.152;5.844;2023-02-07T00:02:44;1.00;93.30
54202;DHT22;40108;53.152;5.844;2023-02-07T00:05:11;1.00;93.10
54202;DHT22;40108;53.152;5.844;2023-02-07T00:07:37;1.10;93.30
54202;DHT22;40108;53.152;5.844;2023-02-07T00:10:04;1.10;93.40
54202;DHT22;40108;53.152;5.844;2023-02-07T00:12:31;1.10;93.40
54202;DHT22;40108;53.152;5.844;2023-02-07T00:14:57;1.10;93.50
54202;DHT22;40108;53.152;5.844;2023-02-07T00:17:23;1.10;93.90
54202;DHT22;40108;53.152;5.844;2023-02-07T00:19:48;1.20;93.90
54202;DHT22;40108;53.152;5.844;2023-02-07T00:22:14;1.20;93.90
54202;DHT22;40108;53.152;5.844;2023-02-07T00:24:40;1.20;94.10
54202;DHT22;40108;53.152;5.844;2023-02-07T00:27:06;1.30;94.00
54202;DHT22;40108;53.152;5.844;2023-02-07T00:29:32;1.30;94.10
54202;DHT22;40108;53.152;5.844;2023-02-07T00:31:58;1.40;94.40
54202;DHT22;40108;53.152;5.844;2023-02-07T00:34:27;1.30;94.50
54202;DHT22;40108;53.152;5.844;2023-02-07T00:36:58;1.40;94.60
54202;DHT22;40108;53.152;5.844;2023-02-07T00:39:27;1.50;94.80
54202;DHT22;40108;53.152;5.844;2023-02-07T00:41:53;1.50;94.90
54202;DHT22;40108;53.152;5.844;2023-02-07T00:44:19;1.40;94.80
54202;DHT22;40108;53.152;5.844;2023-02-07T00:46:45;1.50;94.80
54202;DHT22;40108;53.152;5.844;2023-02-07T00:49:11;1.50;94.90
54202;DHT22;40108;53.152;5.844;2023-02-07T00:51:37;1.40;95.00
54202;DHT22;40108;53.152;5.844;2023-02-07T00:54:03;1.40;95.00
54202;DHT22;40108;53.152;5.844;2023-02-07T00:56:30;1.30;95.10
54202;DHT22;40108;53.152;5.844;2023-02-07T00:58:56;1.30;95.00
54202;DHT22;40108;53.152;5.844;2023-02-07T01:01:22;1.20;95.10
54202;DHT22;40108;53.152;5.844;2023-02-07T01:03:49;1.20;95.20
54202;DHT22;40108;53.152;5.844;2023-02-07T01:06:16;1.20;95.20
54202;DHT22;40108;53.152;5.844;2023-02-07T01:08:44;1.20;95.20
54202;DHT22;40108;53.152;5.844;2023-02-07T01:11:14;1.20;95.20
54202;DHT22;40108;53.152;5.844;2023-02-07T01:13:42;1.20;95.30
54202;DHT22;40108;53.152;5.844;2023-02-07T01:16:36;1.20;95.40
54202;DHT22;40108;53.152;5.844;2023-02-07T01:19:05;1.20;95.40
54202;DHT22;40108;53.152;5.844;2023-02-07T01:21:31;1.10;95.30
54202;DHT22;40108;53.152;5.844;2023-02-07T01:23:57;1.10;95.40
54202;DHT22;40108;53.152;5.844;2023-02-07T01:26:24;1.10;95.40
54202;DHT22;40108;53.152;5.844;2023-02-07T01:28:50;1.10;95.50
54202;DHT22;40108;53.152;5.844;2023-02-07T01:31:19;1.10;95.50
54202;DHT22;40108;53.152;5.844;2023-02-07T01:33:47;1.00;95.50
54202;DHT22;40108;53.152;5.844;2023-02-07T01:36:15;1.00;95.50
54202;DHT22;40108;53.152;5.844;2023-02-07T01:38:41;1.00;95.60
54202;DHT22;40108;53.152;5.844;2023-02-07T01:41:08;1.00;95.60
54202;DHT22;40108;53.152;5.844;2023-02-07T01:43:57;1.00;95.70
54202;DHT22;40108;53.152;5.844;2023-02-07T01:46:29;1.00;95.70
54202;DHT22;40108;53.152;5.844;2023-02-07T01:49:09;1.00;95.80
54202;DHT22;40108;53.152;5.844;2023-02-07T01:51:40;1.00;95.80
54202;DHT22;40108;53.152;5.844;2023-02-07T01:54:11;1.00;95.90
54202;DHT22;40108;53.152;5.844;2023-02-07T01:56:42;1.00;95.90
54202;DHT22;40108;53.152;5.844;2023-02-07T01:59:10;1.00;95.90
54202;DHT22;40108;53.152;5.844;2023-02-07T02:01:41;0.90;95.90
54202;DHT22;40108;53.152;5.844;2023-02-07T02:04:07;0.90;96.00
54202;DHT22;40108;53.152;5.844;2023-02-07T02:06:34;0.90;96.00
54202;DHT22;40108;53.152;5.844;2023-02-07T02:09:12;0.90;96.00
54202;DHT22;40108;53.152;5.844;2023-02-07T02:17:39;0.80;96.00
54202;DHT22;40108;53.152;5.844;2023-02-07T02:32:09;0.60;96.10
54202;DHT22;40108;53.152;5.844;2023-02-07T02:34:53;0.60;96.10
54202;DHT22;40108;53.152;5.844;2023-02-07T02:43:17;0.50;96.20
54202;DHT22;40108;53.152;5.844;2023-02-07T02:45:44;0.50;96.20
54202;DHT22;40108;53.152;5.844;2023-02-07T02:48:11;0.50;96.20
54202;DHT22;40108;53.152;5.844;2023-02-07T02:50:37;0.50;96.20
54202;DHT22;40108;53.152;5.844;2023-02-07T02:53:05;0.40;96.20
54202;DHT22;40108;53.152;5.844;2023-02-07T02:56:19;0.40;96.20
54202;DHT22;40108;53.152;5.844;2023-02-07T03:04:28;0.30;96.30
54202;DHT22;40108;53.152;5.844;2023-02-07T03:07:19;0.30;96.30
54202;DHT22;40108;53.152;5.844;2023-02-07T03:10:06;0.30;96.40
54202;DHT22;40108;53.152;5.844;2023-02-07T03:12:56;0.20;96.40
54202;DHT22;40108;53.152;5.844;2023-02-07T03:18:42;0.20;96.40
54202;DHT22;40108;53.152;5.844;2023-02-07T03:21:23;0.10;96.50
54202;DHT22;40108;53.152;5.844;2023-02-07T03:23:52;0.20;96.60
54202;DHT22;40108;53.152;5.844;2023-02-07T03:26:25;0.10;96.60
54202;DHT22;40108;53.152;5.844;2023-02-07T03:28:54;0.10;96.60
54202;DHT22;40108;53.152;5.844;2023-02-07T03:31:23;0.10;96.60
54202;DHT22;40108;53.152;5.844;2023-02-07T03:33:55;0.00;96.60
54202;DHT22;40108;53.152;5.844;2023-02-07T03:36:32;0.00;96.70
54202;DHT22;40108;53.152;5.844;2023-02-07T03:39:10;0.10;96.70
54202;DHT22;40108;53.152;5.844;2023-02-07T03:41:44;0.10;96.80
54202;DHT22;40108;53.152;5.844;2023-02-07T03:44:14;0.00;96.80
54202;DHT22;40108;53.152;5.844;2023-02-07T03:46:41;0.10;96.90
54202;DHT22;40108;53.152;5.844;2023-02-07T03:49:07;0.10;96.90
54202;DHT22;40108;53.152;5.844;2023-02-07T03:51:36;0.10;96.90
54202;DHT22;40108;53.152;5.844;2023-02-07T03:54:02;0.10;96.90
54202;DHT22;40108;53.152;5.844;2023-02-07T03:56:28;0.00;96.90
54202;DHT22;40108;53.152;5.844;2023-02-07T03:58:56;0.00;97.00
54202;DHT22;40108;53.152;5.844;2023-02-07T04:01:22;0.00;97.00
54202;DHT22;40108;53.152;5.844;2023-02-07T04:03:48;0.00;97.00
54202;DHT22;40108;53.152;5.844;2023-02-07T04:06:14;-3276.70;97.00
54202;DHT22;40108;53.152;5.844;2023-02-07T04:08:39;-3276.70;97.00
54202;DHT22;40108;53.152;5.844;2023-02-07T04:11:05;-3276.70;97.10
54202;DHT22;40108;53.152;5.844;2023-02-07T04:13:31;-3276.70;97.10
54202;DHT22;40108;53.152;5.844;2023-02-07T04:15:57;-3276.70;97.10
54202;DHT22;40108;53.152;5.844;2023-02-07T04:18:23;-3276.70;97.10
54202;DHT22;40108;53.152;5.844;2023-02-07T04:20:49;-3276.60;97.20
54202;DHT22;40108;53.152;5.844;2023-02-07T04:23:14;-3276.70;97.20
54202;DHT22;40108;53.152;5.844;2023-02-07T04:25:40;-3276.70;97.20
54202;DHT22;40108;53.152;5.844;2023-02-07T04:28:06;-3276.60;97.20
54202;DHT22;40108;53.152;5.844;2023-02-07T04:30:32;-3276.60;97.20
54202;DHT22;40108;53.152;5.844;2023-02-07T04:32:58;-3276.60;97.20
54202;DHT22;40108;53.152;5.844;2023-02-07T04:35:23;-3276.60;97.30
54202;DHT22;40108;53.152;5.844;2023-02-07T04:37:49;-3276.60;97.30
54202;DHT22;40108;53.152;5.844;2023-02-07T04:40:15;-3276.60;97.30
54202;DHT22;40108;53.152;5.844;2023-02-07T04:42:41;-3276.60;97.30
54202;DHT22;40108;53.152;5.844;2023-02-07T04:45:07;-3276.60;97.30
54202;DHT22;40108;53.152;5.844;2023-02-07T04:47:33;-3276.50;97.30
54202;DHT22;40108;53.152;5.844;2023-02-07T04:49:59;-3276.50;97.30
54202;DHT22;40108;53.152;5.844;2023-02-07T04:52:25;-3276.50;97.30
54202;DHT22;40108;53.152;5.844;2023-02-07T04:54:50;-3276.50;97.30
54202;DHT22;40108;53.152;5.844;2023-02-07T04:57:16;-3276.50;97.30
54202;DHT22;40108;53.152;5.844;2023-02-07T04:59:42;-3276.50;97.40
54202;DHT22;40108;53.152;5.844;2023-02-07T05:02:07;-3276.50;97.40
54202;DHT22;40108;53.152;5.844;2023-02-07T05:04:34;-3276.50;97.40
54202;DHT22;40108;53.152;5.844;2023-02-07T05:06:59;-3276.50;97.40
54202;DHT22;40108;53.152;5.844;2023-02-07T05:09:25;-3276.50;97.30
54202;DHT22;40108;53.152;5.844;2023-02-07T05:11:51;-3276.40;97.40
54202;DHT22;40108;53.152;5.844;2023-02-07T05:14:17;-3276.40;97.40
54202;DHT22;40108;53.152;5.844;2023-02-07T05:16:42;-3276.40;97.40
54202;DHT22;40108;53.152;5.844;2023-02-07T05:19:08;-3276.40;97.30
54202;DHT22;40108;53.152;5.844;2023-02-07T05:21:34;-3276.40;97.30
54202;DHT22;40108;53.152;5.844;2023-02-07T05:24:00;-3276.30;97.30
54202;DHT22;40108;53.152;5.844;2023-02-07T05:26:26;-3276.20;97.20
54202;DHT22;40108;53.152;5.844;2023-02-07T05:28:51;-3276.20;97.20
54202;DHT22;40108;53.152;5.844;2023-02-07T05:31:17;-3276.10;97.20
54202;DHT22;40108;53.152;5.844;2023-02-07T05:33:43;-3276.10;97.20
54202;DHT22;40108;53.152;5.844;2023-02-07T05:36:09;-3276.10;97.20
54202;DHT22;40108;53.152;5.844;2023-02-07T05:38:35;-3276.10;97.20
54202;DHT22;40108;53.152;5.844;2023-02-07T05:41:00;-3276.00;97.20
54202;DHT22;40108;53.152;5.844;2023-02-07T05:43:26;-3276.00;97.10
54202;DHT22;40108;53.152;5.844;2023-02-07T05:45:52;-3275.90;97.10
54202;DHT22;40108;53.152;5.844;2023-02-07T05:48:20;-3275.90;97.10
54202;DHT22;40108;53.152;5.844;2023-02-07T05:50:53;-3275.80;97.10
54202;DHT22;40108;53.152;5.844;2023-02-07T05:53:30;-3275.70;97.10
54202;DHT22;40108;53.152;5.844;2023-02-07T05:55:56;-3275.70;97.10
54202;DHT22;40108;53.152;5.844;2023-02-07T05:58:24;-3275.70;97.10
54202;DHT22;40108;53.152;5.844;2023-02-07T06:00:50;-3275.60;97.10
54202;DHT22;40108;53.152;5.844;2023-02-07T06:03:16;-3275.60;97.10
54202;DHT22;40108;53.152;5.844;2023-02-07T06:05:48;-3275.60;97.10
54202;DHT22;40108;53.152;5.844;2023-02-07T06:08:24;-3275.60;97.10
54202;DHT22;40108;53.152;5.844;2023-02-07T06:10:58;-3275.50;97.10
54202;DHT22;40108;53.152;5.844;2023-02-07T06:13:34;-3275.50;97.10
54202;DHT22;40108;53.152;5.844;2023-02-07T06:16:17;-3275.50;97.10
54202;DHT22;40108;53.152;5.844;2023-02-07T06:18:53;-3275.50;97.10
54202;DHT22;40108;53.152;5.844;2023-02-07T06:21:19;-3275.50;97.10
54202;DHT22;40108;53.152;5.844;2023-02-07T06:23:45;-3275.40;97.10
54202;DHT22;40108;53.152;5.844;2023-02-07T06:26:19;-3275.50;97.10
54202;DHT22;40108;53.152;5.844;2023-02-07T06:28:44;-3275.50;97.10
54202;DHT22;40108;53.152;5.844;2023-02-07T06:31:16;-3275.60;97.10
54202;DHT22;40108;53.152;5.844;2023-02-07T06:33:44;-3275.50;97.10
54202;DHT22;40108;53.152;5.844;2023-02-07T06:36:10;-3275.50;97.10
54202;DHT22;40108;53.152;5.844;2023-02-07T06:38:36;-3275.50;97.10
54202;DHT22;40108;53.152;5.844;2023-02-07T06:41:02;-3275.50;97.00
54202;DHT22;40108;53.152;5.844;2023-02-07T06:43:27;-3275.50;97.10
54202;DHT22;40108;53.152;5.844;2023-02-07T06:45:53;-3275.40;97.00
54202;DHT22;40108;53.152;5.844;2023-02-07T06:48:19;-3275.40;97.00
54202;DHT22;40108;53.152;5.844;2023-02-07T06:50:48;-3275.40;97.00
54202;DHT22;40108;53.152;5.844;2023-02-07T06:53:15;-3275.40;97.00
54202;DHT22;40108;53.152;5.844;2023-02-07T06:55:41;-3275.30;97.00
54202;DHT22;40108;53.152;5.844;2023-02-07T06:58:07;-3275.30;96.90
54202;DHT22;40108;53.152;5.844;2023-02-07T07:00:35;-3275.30;97.00
54202;DHT22;40108;53.152;5.844;2023-02-07T07:03:04;-3275.20;97.00
54202;DHT22;40108;53.152;5.844;2023-02-07T07:05:30;-3275.20;96.90
54202;DHT22;40108;53.152;5.844;2023-02-07T07:08:01;-3275.20;97.00
54202;DHT22;40108;53.152;5.844;2023-02-07T07:10:27;-3275.20;97.00
54202;DHT22;40108;53.152;5.844;2023-02-07T07:12:53;-3275.30;97.00
54202;DHT22;40108;53.152;5.844;2023-02-07T07:15:21;-3275.30;97.00
54202;DHT22;40108;53.152;5.844;2023-02-07T07:17:47;-3275.30;97.00
54202;DHT22;40108;53.152;5.844;2023-02-07T07:20:13;-3275.30;97.00
54202;DHT22;40108;53.152;5.844;2023-02-07T07:22:39;-3275.30;97.00
54202;DHT22;40108;53.152;5.844;2023-02-07T07:25:05;-3275.30;97.00
54202;DHT22;40108;53.152;5.844;2023-02-07T07:27:31;-3275.30;97.00
54202;DHT22;40108;53.152;5.844;2023-02-07T07:29:57;-3275.30;97.00
54202;DHT22;40108;53.152;5.844;2023-02-07T07:32:25;-3275.30;96.90
54202;DHT22;40108;53.152;5.844;2023-02-07T07:34:51;-3275.30;97.00
54202;DHT22;40108;53.152;5.844;2023-02-07T07:37:22;-3275.30;96.90
54202;DHT22;40108;53.152;5.844;2023-02-07T07:39:55;-3275.30;97.00
54202;DHT22;40108;53.152;5.844;2023-02-07T07:42:24;-3275.30;97.00
54202;DHT22;40108;53.152;5.844;2023-02-07T07:44:50;-3275.30;97.00
54202;DHT22;40108;53.152;5.844;2023-02-07T07:47:15;-3275.30;96.90
54202;DHT22;40108;53.152;5.844;2023-02-07T07:49:46;-3275.40;96.90
54202;DHT22;40108;53.152;5.844;2023-02-07T07:52:12;-3275.40;96.90
54202;DHT22;40108;53.152;5.844;2023-02-07T07:54:38;-3275.40;96.90
54202;DHT22;40108;53.152;5.844;2023-02-07T07:57:03;-3275.40;96.90
54202;DHT22;40108;53.152;5.844;2023-02-07T07:59:29;-3275.40;96.90
54202;DHT22;40108;53.152;5.844;2023-02-07T08:01:55;-3275.40;96.90
54202;DHT22;40108;53.152;5.844;2023-02-07T08:04:21;-3275.40;96.80
54202;DHT22;40108;53.152;5.844;2023-02-07T08:06:47;-3275.40;96.90
54202;DHT22;40108;53.152;5.844;2023-02-07T08:09:16;-3275.40;96.80
54202;DHT22;40108;53.152;5.844;2023-02-07T08:11:41;-3275.50;96.90
54202;DHT22;40108;53.152;5.844;2023-02-07T08:14:07;-3275.50;96.90
54202;DHT22;40108;53.152;5.844;2023-02-07T08:16:33;-3275.50;96.90
54202;DHT22;40108;53.152;5.844;2023-02-07T08:18:59;-3275.60;96.90
54202;DHT22;40108;53.152;5.844;2023-02-07T08:21:24;-3275.60;96.90
54202;DHT22;40108;53.152;5.844;2023-02-07T08:23:52;-3275.60;96.90
54202;DHT22;40108;53.152;5.844;2023-02-07T08:26:18;-3275.70;96.90
54202;DHT22;40108;53.152;5.844;2023-02-07T08:28:47;-3275.70;96.90
54202;DHT22;40108;53.152;5.844;2023-02-07T08:31:14;-3275.80;96.90
54202;DHT22;40108;53.152;5.844;2023-02-07T08:33:39;-3275.80;96.90
54202;DHT22;40108;53.152;5.844;2023-02-07T08:36:05;-3275.90;96.90
54202;DHT22;40108;53.152;5.844;2023-02-07T08:38:34;-3275.90;96.80
54202;DHT22;40108;53.152;5.844;2023-02-07T08:41:02;-3275.90;96.80
54202;DHT22;40108;53.152;5.844;2023-02-07T08:43:28;-3276.00;96.90
54202;DHT22;40108;53.152;5.844;2023-02-07T08:45:54;-3276.10;96.80
54202;DHT22;40108;53.152;5.844;2023-02-07T08:48:19;-3276.10;96.90
54202;DHT22;40108;53.152;5.844;2023-02-07T08:50:45;-3276.30;96.90
54202;DHT22;40108;53.152;5.844;2023-02-07T08:53:11;-3276.50;97.00
54202;DHT22;40108;53.152;5.844;2023-02-07T08:55:39;0.00;97.00
54202;DHT22;40108;53.152;5.844;2023-02-07T08:58:05;0.10;97.00
54202;DHT22;40108;53.152;5.844;2023-02-07T09:00:31;0.30;96.80
54202;DHT22;40108;53.152;5.844;2023-02-07T09:03:00;0.50;96.60
54202;DHT22;40108;53.152;5.844;2023-02-07T09:05:26;0.70;96.30
54202;DHT22;40108;53.152;5.844;2023-02-07T09:07:52;0.90;96.20
54202;DHT22;40108;53.152;5.844;2023-02-07T09:10:18;1.10;95.50
54202;DHT22;40108;53.152;5.844;2023-02-07T09:12:46;1.20;94.80
54202;DHT22;40108;53.152;5.844;2023-02-07T09:15:12;1.40;94.60
54202;DHT22;40108;53.152;5.844;2023-02-07T09:17:37;1.60;94.30
54202;DHT22;40108;53.152;5.844;2023-02-07T09:20:03;1.80;93.90
54202;DHT22;40108;53.152;5.844;2023-02-07T09:22:29;1.90;92.60
54202;DHT22;40108;53.152;5.844;2023-02-07T09:24:56;2.00;91.70
54202;DHT22;40108;53.152;5.844;2023-02-07T09:27:22;2.10;91.20
54202;DHT22;40108;53.152;5.844;2023-02-07T09:29:48;2.20;91.10
54202;DHT22;40108;53.152;5.844;2023-02-07T09:32:16;2.30;90.90
54202;DHT22;40108;53.152;5.844;2023-02-07T09:34:42;2.30;89.70
54202;DHT22;40108;53.152;5.844;2023-02-07T09:37:08;2.30;88.80
54202;DHT22;40108;53.152;5.844;2023-02-07T09:39:35;2.40;88.70
54202;DHT22;40108;53.152;5.844;2023-02-07T09:47:14;2.70;88.50
54202;DHT22;40108;53.152;5.844;2023-02-07T09:49:51;3.00;88.50
54202;DHT22;40108;53.152;5.844;2023-02-07T09:52:27;3.00;86.80
54202;DHT22;40108;53.152;5.844;2023-02-07T09:54:54;2.90;86.00
54202;DHT22;40108;53.152;5.844;2023-02-07T09:57:29;3.00;86.30
54202;DHT22;40108;53.152;5.844;2023-02-07T10:00:23;3.10;86.80
54202;DHT22;40108;53.152;5.844;2023-02-07T10:06:00;3.20;84.40
54202;DHT22;40108;53.152;5.844;2023-02-07T10:08:29;3.30;85.60
54202;DHT22;40108;53.152;5.844;2023-02-07T10:14:11;3.60;85.30
54202;DHT22;40108;53.152;5.844;2023-02-07T10:19:36;3.90;84.60
54202;DHT22;40108;53.152;5.844;2023-02-07T10:30:39;4.40;82.90
54202;DHT22;40108;53.152;5.844;2023-02-07T10:33:19;4.60;82.70
54202;DHT22;40108;53.152;5.844;2023-02-07T10:35:46;4.60;82.00
54202;DHT22;40108;53.152;5.844;2023-02-07T10:38:28;4.70;81.90
54202;DHT22;40108;53.152;5.844;2023-02-07T10:43:29;4.80;81.40
54202;DHT22;40108;53.152;5.844;2023-02-07T10:46:05;4.90;81.70
54202;DHT22;40108;53.152;5.844;2023-02-07T10:48:32;5.10;80.70
54202;DHT22;40108;53.152;5.844;2023-02-07T10:51:02;5.10;80.70
54202;DHT22;40108;53.152;5.844;2023-02-07T10:53:45;5.30;80.80
54202;DHT22;40108;53.152;5.844;2023-02-07T10:56:21;5.50;81.60
54202;DHT22;40108;53.152;5.844;2023-02-07T10:58:48;5.90;81.00
54202;DHT22;40108;53.152;5.844;2023-02-07T11:01:23;6.20;80.40
54202;DHT22;40108;53.152;5.844;2023-02-07T11:03:50;6.20;78.90
54202;DHT22;40108;53.152;5.844;2023-02-07T11:06:31;6.10;78.10
54202;DHT22;40108;53.152;5.844;2023-02-07T11:09:33;6.10;77.90
54202;DHT22;40108;53.152;5.844;2023-02-07T11:12:22;6.40;79.00
54202;DHT22;40108;53.152;5.844;2023-02-07T11:15:15;6.40;77.20
54202;DHT22;40108;53.152;5.844;2023-02-07T11:17:49;6.60;77.80
54202;DHT22;40108;53.152;5.844;2023-02-07T11:20:37;6.60;76.70
54202;DHT22;40108;53.152;5.844;2023-02-07T11:23:12;6.60;76.50
54202;DHT22;40108;53.152;5.844;2023-02-07T11:25:44;6.60;76.80
54202;DHT22;40108;53.152;5.844;2023-02-07T11:28:26;6.90;77.60
54202;DHT22;40108;53.152;5.844;2023-02-07T11:31:07;7.10;75.60
54202;DHT22;40108;53.152;5.844;2023-02-07T11:33:35;6.90;74.20
54202;DHT22;40108;53.152;5.844;2023-02-07T11:38:54;6.70;74.80
54202;DHT22;40108;53.152;5.844;2023-02-07T11:41:29;6.70;75.70
54202;DHT22;40108;53.152;5.844;2023-02-07T11:44:02;6.80;75.20
54202;DHT22;40108;53.152;5.844;2023-02-07T11:46:38;7.00;75.70
54202;DHT22;40108;53.152;5.844;2023-02-07T11:49:29;7.10;73.90
54202;DHT22;40108;53.152;5.844;2023-02-07T11:51:56;7.10;74.40
54202;DHT22;40108;53.152;5.844;2023-02-07T11:54:26;6.80;73.40
54202;DHT22;40108;53.152;5.844;2023-02-07T11:57:03;6.60;74.40
54202;DHT22;40108;53.152;5.844;2023-02-07T11:59:48;6.60;75.30
54202;DHT22;40108;53.152;5.844;2023-02-07T12:02:25;6.70;74.60
54202;DHT22;40108;53.152;5.844;2023-02-07T12:04:53;6.70;75.10
54202;DHT22;40108;53.152;5.844;2023-02-07T12:07:30;6.60;74.70
54202;DHT22;40108;53.152;5.844;2023-02-07T12:10:03;6.60;75.10
54202;DHT22;40108;53.152;5.844;2023-02-07T12:12:35;6.70;75.50
54202;DHT22;40108;53.152;5.844;2023-02-07T12:18:00;6.60;75.30
54202;DHT22;40108;53.152;5.844;2023-02-07T12:20:32;6.70;74.60
54202;DHT22;40108;53.152;5.844;2023-02-07T12:25:51;6.60;74.30
54202;DHT22;40108;53.152;5.844;2023-02-07T12:28:42;6.60;75.50
54202;DHT22;40108;53.152;5.844;2023-02-07T12:31:23;6.70;75.40
54202;DHT22;40108;53.152;5.844;2023-02-07T12:34:01;6.90;74.50
54202;DHT22;40108;53.152;5.844;2023-02-07T12:36:33;6.90;74.40
54202;DHT22;40108;53.152;5.844;2023-02-07T12:39:10;6.80;74.20
54202;DHT22;40108;53.152;5.844;2023-02-07T12:42:05;6.60;74.10
54202;DHT22;40108;53.152;5.844;2023-02-07T12:44:36;6.60;73.70
54202;DHT22;40108;53.152;5.844;2023-02-07T12:58:25;7.00;73.60
54202;DHT22;40108;53.152;5.844;2023-02-07T13:04:29;7.00;74.00
54202;DHT22;40108;53.152;5.844;2023-02-07T13:22:56;6.90;74.40
54202;DHT22;40108;53.152;5.844;2023-02-07T13:25:28;6.70;74.30
54202;DHT22;40108;53.152;5.844;2023-02-07T13:27:56;6.60;74.40
54202;DHT22;40108;53.152;5.844;2023-02-07T13:30:24;6.40;74.60
54202;DHT22;40108;53.152;5.844;2023-02-07T13:32:51;6.00;76.00
54202;DHT22;40108;53.152;5.844;2023-02-07T13:35:22;5.70;76.50
54202;DHT22;40108;53.152;5.844;2023-02-07T13:43:38;5.10;78.90
54202;DHT22;40108;53.152;5.844;2023-02-07T13:48:59;4.90;79.70
54202;DHT22;40108;53.152;5.844;2023-02-07T13:56:57;4.70;80.60
54202;DHT22;40108;53.152;5.844;2023-02-07T13:59:41;4.70;80.80
54202;DHT22;40108;53.152;5.844;2023-02-07T14:02:19;4.70;80.40
54202;DHT22;40108;53.152;5.844;2023-02-07T14:04:55;4.70;80.70
54202;DHT22;40108;53.152;5.844;2023-02-07T14:07:27;4.70;80.90
54202;DHT22;40108;53.152;5.844;2023-02-07T14:09:54;4.70;81.70
54202;DHT22;40108;53.152;5.844;2023-02-07T14:12:31;4.70;81.70
54202;DHT22;40108;53.152;5.844;2023-02-07T14:18:28;4.70;81.40
54202;DHT22;40108;53.152;5.844;2023-02-07T14:21:00;4.70;82.10
54202;DHT22;40108;53.152;5.844;2023-02-07T14:38:07;4.70;82.00
54202;DHT22;40108;53.152;5.844;2023-02-07T14:51:01;4.50;80.20
54202;DHT22;40108;53.152;5.844;2023-02-07T14:53:28;4.60;79.80
54202;DHT22;40108;53.152;5.844;2023-02-07T14:56:01;4.50;79.40
54202;DHT22;40108;53.152;5.844;2023-02-07T14:58:42;4.50;78.90
54202;DHT22;40108;53.152;5.844;2023-02-07T15:01:16;4.50;78.50
54202;DHT22;40108;53.152;5.844;2023-02-07T15:03:42;4.50;78.60
54202;DHT22;40108;53.152;5.844;2023-02-07T15:06:21;4.40;78.40
54202;DHT22;40108;53.152;5.844;2023-02-07T15:09:00;4.40;78.50
54202;DHT22;40108;53.152;5.844;2023-02-07T15:11:30;4.40;79.10
54202;DHT22;40108;53.152;5.844;2023-02-07T15:14:05;4.40;79.30
54202;DHT22;40108;53.152;5.844;2023-02-07T15:16:36;4.40;79.50
54202;DHT22;40108;53.152;5.844;2023-02-07T15:19:24;4.40;79.80
54202;DHT22;40108;53.152;5.844;2023-02-07T15:22:01;4.40;79.90
54202;DHT22;40108;53.152;5.844;2023-02-07T15:25:18;4.30;80.10
54202;DHT22;40108;53.152;5.844;2023-02-07T15:31:23;4.30;79.60
54202;DHT22;40108;53.152;5.844;2023-02-07T15:34:19;4.30;79.60
54202;DHT22;40108;53.152;5.844;2023-02-07T15:37:20;4.30;80.00
54202;DHT22;40108;53.152;5.844;2023-02-07T15:39:56;4.20;80.30
54202;DHT22;40108;53.152;5.844;2023-02-07T15:42:31;4.20;80.50
54202;DHT22;40108;53.152;5.844;2023-02-07T15:45:00;4.20;80.60
54202;DHT22;40108;53.152;5.844;2023-02-07T15:47:33;4.20;80.90
54202;DHT22;40108;53.152;5.844;2023-02-07T15:50:14;4.10;81.00
54202;DHT22;40108;53.152;5.844;2023-02-07T15:52:48;4.10;81.10
54202;DHT22;40108;53.152;5.844;2023-02-07T15:55:34;4.00;81.20
54202;DHT22;40108;53.152;5.844;2023-02-07T15:58:22;3.90;81.40
54202;DHT22;40108;53.152;5.844;2023-02-07T16:01:06;3.90;81.60
54202;DHT22;40108;53.152;5.844;2023-02-07T16:03:42;3.90;81.80
54202;DHT22;40108;53.152;5.844;2023-02-07T16:06:20;3.80;81.90
54202;DHT22;40108;53.152;5.844;2023-02-07T16:09:00;3.80;82.10
54202;DHT22;40108;53.152;5.844;2023-02-07T16:16:52;3.60;82.70
54202;DHT22;40108;53.152;5.844;2023-02-07T16:19:44;3.60;83.00
54202;DHT22;40108;53.152;5.844;2023-02-07T16:22:17;3.50;83.10
54202;DHT22;40108;53.152;5.844;2023-02-07T16:24:45;3.40;83.20
54202;DHT22;40108;53.152;5.844;2023-02-07T16:27:21;3.40;83.40
54202;DHT22;40108;53.152;5.844;2023-02-07T16:29:53;3.30;83.50
54202;DHT22;40108;53.152;5.844;2023-02-07T16:32:24;3.30;83.70
54202;DHT22;40108;53.152;5.844;2023-02-07T16:34:51;3.20;83.80
54202;DHT22;40108;53.152;5.844;2023-02-07T16:37:19;3.20;83.90
54202;DHT22;40108;53.152;5.844;2023-02-07T16:45:37;2.90;84.50
54202;DHT22;40108;53.152;5.844;2023-02-07T16:48:12;2.80;84.80
54202;DHT22;40108;53.152;5.844;2023-02-07T16:50:51;2.80;85.00
54202;DHT22;40108;53.152;5.844;2023-02-07T16:53:25;2.70;85.00
54202;DHT22;40108;53.152;5.844;2023-02-07T16:55:55;2.70;85.00
54202;DHT22;40108;53.152;5.844;2023-02-07T16:59:00;2.70;85.10
54202;DHT22;40108;53.152;5.844;2023-02-07T17:04:09;2.60;85.40
54202;DHT22;40108;53.152;5.844;2023-02-07T17:06:51;2.60;85.30
54202;DHT22;40108;53.152;5.844;2023-02-07T17:09:53;2.50;85.20
54202;DHT22;40108;53.152;5.844;2023-02-07T17:12:34;2.40;85.40
54202;DHT22;40108;53.152;5.844;2023-02-07T17:15:02;2.30;85.60
54202;DHT22;40108;53.152;5.844;2023-02-07T17:17:49;2.20;85.80
54202;DHT22;40108;53.152;5.844;2023-02-07T17:20:33;2.20;85.80
54202;DHT22;40108;53.152;5.844;2023-02-07T17:23:27;2.10;85.90
54202;DHT22;40108;53.152;5.844;2023-02-07T17:26:23;2.10;85.90
54202;DHT22;40108;53.152;5.844;2023-02-07T17:28:52;2.00;86.00
54202;DHT22;40108;53.152;5.844;2023-02-07T17:31:36;1.90;86.10
54202;DHT22;40108;53.152;5.844;2023-02-07T17:34:04;1.90;86.20
54202;DHT22;40108;53.152;5.844;2023-02-07T17:36:42;1.90;86.40
54202;DHT22;40108;53.152;5.844;2023-02-07T17:39:13;1.90;86.50
54202;DHT22;40108;53.152;5.844;2023-02-07T17:41:45;1.80;86.40
54202;DHT22;40108;53.152;5.844;2023-02-07T17:44:13;1.80;86.60
54202;DHT22;40108;53.152;5.844;2023-02-07T17:46:58;1.80;86.70
54202;DHT22;40108;53.152;5.844;2023-02-07T17:49:35;1.80;86.70
54202;DHT22;40108;53.152;5.844;2023-02-07T17:52:08;1.80;86.70
54202;DHT22;40108;53.152;5.844;2023-02-07T17:54:45;1.80;86.70
54202;DHT22;40108;53.152;5.844;2023-02-07T17:57:19;1.80;86.80
54202;DHT22;40108;53.152;5.844;2023-02-07T17:59:45;1.80;87.00
54202;DHT22;40108;53.152;5.844;2023-02-07T18:02:16;1.80;87.00
54202;DHT22;40108;53.152;5.844;2023-02-07T18:05:00;1.70;87.10
54202;DHT22;40108;53.152;5.844;2023-02-07T18:08:06;1.70;87.10
54202;DHT22;40108;53.152;5.844;2023-02-07T18:10:54;1.70;87.10
54202;DHT22;40108;53.152;5.844;2023-02-07T18:36:25;1.40;87.20
54202;DHT22;40108;53.152;5.844;2023-02-07T18:46:19;1.20;87.30
54202;DHT22;40108;53.152;5.844;2023-02-07T18:49:09;1.10;87.30
54202;DHT22;40108;53.152;5.844;2023-02-07T18:55:08;1.00;87.40
54202;DHT22;40108;53.152;5.844;2023-02-07T19:03:56;0.90;87.80
54202;DHT22;40108;53.152;5.844;2023-02-07T19:06:32;0.90;87.70
54202;DHT22;40108;53.152;5.844;2023-02-07T19:09:04;0.90;87.70
54202;DHT22;40108;53.152;5.844;2023-02-07T19:11:37;0.80;88.00